メインページ
METAR-TAF:

METAR-TAF

空港 :

テヘラン, イラン

メヘラーバード国際空港

緯度: 35-41N, 経度: 051-21E, 海抜: 1204m

現時点の気象観測

当レポートは30分前の11:30(UTC)に作成
西/北西の風 10kt
気温 9°C
湿度 71%
気圧 1015 hPa
視程10km以上
高度4000ftの雲はほとんどない
高度10000ftの千切れ雲あり

METAR: OIII 241130Z 30010KT 9999 FEW040 BKN100 09/04 Q1014 A2997 NOSIG

時間: 16:30 (12:00 UTC)

予報

当レポートは30分前の11:30(UTC)に作成
予報は24日の 12時(UTC)から 25日の 18時(UTC)まで有効
北西の風 10kt
視程: 7000m
高度3500ftの雲はほとんどない
高度9000ftの千切れ雲あり
24日の 12時(UTC)から 24日の 17時(UTC)まで一時的に
北/北西の風 14kt、最大25ktの突風を伴う
24日の 18時(UTC)から 24日の 20時(UTC)まで徐々に
視程: 3000m
高度3000ftの雲は散在している
高度8000ftの千切れ雲あり
確率 40% :
24日の 19時(UTC)から 24日の 24時(UTC)まで一時的に
視程: 1500m
高度1000ftの千切れ雲あり
25日の 03時(UTC)から 25日の 05時(UTC)まで徐々に
南東の風 10kt
視程: 7000m
高度3000ftの雲はほとんどない, 積乱雲.
高度3500ftの雲は散在している
高度9000ftの千切れ雲あり
25日の 07時(UTC)から 25日の 10時(UTC)まで一時的に
の風 14kt、最大25ktの突風を伴う
視程: 5000m
高度3000ftの雲はほとんどない, 積乱雲.
高度3500ftの雲は散在している
高度8000ftの曇り
にわか雨
25日の 12時(UTC)から 25日の 14時(UTC)まで徐々に
南東の風 6kt
視程: 7000m
高度4000ftの雲はほとんどない

TAF: OIII 241130Z 2412/2518 32005MPS 7000 FEW035 BKN090 TEMPO 2412/2417 34007G13MPS BECMG 2418/2420 3000 BR SCT030 BKN080 PROB40 TEMPO 2419/2424 1500 BR BKN010 BECMG 2503/2505 14005MPS 7000 FEW030CB SCT035 BKN090 TEMPO 2507/2510 17007G13MPS 5000 SHRA FEW030CB SCT035 OVC080 BECMG 2512/2514 14003MPS 7000 FEW040

4,000以上の空港の気象観測と天気予報(METAR報とTAF報)

利用可能な観測所は地図上に黄色い丸と赤い丸で示す。

丸の上にカーソルを重ねると観測所名を参照できる。

次にクリックすると気象観測と天気予報を参照できる。

マップの切り替え:黒色「×」印の緑ボタンをクリックして拡大、「-」印の緑ボタンをクリックして縮小、緑色の三角印をクリックして隣りの地図に切り替え


METAR-TAF: